Time;durP1;ratioP1;P1;durP2;ratioP2;P2;SDS_P1;SDS_P2;PMS_P1;PMS_P2;Temp;Humidity;BMP_temperature;BMP_pressure;BME280_temperature;BME280_humidity;BME280_pressure;Samples;Min_cycle;Max_cycle;Signal;HPM_P1;HPM_P2
2024/01/29 00:01:29;;;;;;;16.93;10.90;;;;;;;-143.21;77.69;74851.50;4903405;29;20627;-88
2024/01/29 00:03:56;;;;;;;21.33;11.03;;;;;;;-143.21;77.93;74863.41;4921120;29;20242;-88
2024/01/29 00:06:22;;;;;;;18.87;10.60;;;;;;;-143.21;78.02;74865.41;4916955;29;20202;-89
2024/01/29 00:08:52;;;;;;;19.07;11.27;;;;;;;-143.21;78.06;74863.41;4929864;29;20201;-88
2024/01/29 00:11:18;;;;;;;26.07;11.63;;;;;;;-143.21;78.16;74869.38;4916457;29;20198;-89
2024/01/29 00:13:46;;;;;;;20.83;11.20;;;;;;;-143.21;78.24;74879.28;4921184;29;20202;-89
2024/01/29 00:16:12;;;;;;;18.23;10.90;;;;;;;-143.21;78.05;74865.41;4915491;29;20203;-89
2024/01/29 00:18:41;;;;;;;17.83;10.77;;;;;;;-143.21;77.57;74861.44;4911053;29;20202;-89
2024/01/29 00:21:07;;;;;;;17.40;9.90;;;;;;;-143.21;77.71;74861.44;4917307;29;20616;-89
2024/01/29 00:23:34;;;;;;;17.67;10.10;;;;;;;-143.21;77.58;74861.44;4914275;29;20299;-88
2024/01/29 00:26:01;;;;;;;17.60;10.10;;;;;;;-143.21;77.71;74859.44;4909394;29;20211;-89
2024/01/29 00:28:28;;;;;;;18.87;10.83;;;;;;;-143.21;77.65;74855.47;4902878;29;20210;-90
2024/01/29 00:30:55;;;;;;;18.87;10.80;;;;;;;-143.21;77.45;74845.56;4908395;29;20726;-88
2024/01/29 00:33:24;;;;;;;17.43;10.73;;;;;;;-143.21;77.30;74841.59;4905438;29;20673;-89
2024/01/29 00:35:52;;;;;;;19.43;11.43;;;;;;;-143.21;76.77;74839.59;4906846;29;20202;-89
2024/01/29 00:38:19;;;;;;;21.97;11.33;;;;;;;-143.21;76.51;74847.53;4904130;29;20191;-90
2024/01/29 00:40:46;;;;;;;16.83;11.13;;;;;;;-143.21;76.99;74859.44;4907646;29;20207;-89
2024/01/29 00:43:12;;;;;;;20.23;12.07;;;;;;;-143.21;77.03;74861.44;4907864;29;20833;-90
2024/01/29 00:45:39;;;;;;;20.30;11.33;;;;;;;-143.21;76.84;74855.47;4914545;29;20270;-90
2024/01/29 00:48:06;;;;;;;19.50;11.20;;;;;;;-143.21;76.90;74873.34;4923829;29;20206;-89
2024/01/29 00:50:33;;;;;;;19.20;10.17;;;;;;;-143.21;77.57;74893.19;4913988;29;20250;-87
2024/01/29 00:53:02;;;;;;;15.00;9.23;;;;;;;-143.21;78.67;74926.91;4905167;29;20206;-88
2024/01/29 00:55:29;;;;;;;14.50;9.00;;;;;;;-143.21;79.47;74946.78;4905535;29;20211;-87
2024/01/29 00:57:55;;;;;;;14.23;9.33;;;;;;;-143.21;79.37;74938.81;4918484;29;20207;-89
2024/01/29 01:00:22;;;;;;;18.70;9.40;;;;;;;-143.21;79.09;74926.91;4918085;29;20203;-89
2024/01/29 01:02:57;;;;;;;17.93;10.30;;;;;;;-143.21;78.55;74915.00;4888600;29;20234;-89
2024/01/29 01:05:24;;;;;;;17.63;9.80;;;;;;;-143.21;78.57;74924.94;4911668;29;20206;-89
2024/01/29 01:07:51;;;;;;;14.87;9.17;;;;;;;-143.21;79.19;74948.75;4902348;29;20300;-88
2024/01/29 01:10:19;;;;;;;16.67;10.07;;;;;;;-143.21;79.50;74942.78;4921495;29;20599;-89
2024/01/29 01:12:46;;;;;;;13.07;8.60;;;;;;;-143.21;79.80;74944.78;4911377;29;20350;-89
2024/01/29 01:15:12;;;;;;;15.40;9.30;;;;;;;-143.21;79.58;74948.75;4915622;29;20745;-90
2024/01/29 01:17:41;;;;;;;17.37;10.10;;;;;;;-143.21;79.54;74940.81;4897068;29;20191;-90
2024/01/29 01:20:17;;;;;;;16.67;10.57;;;;;;;-143.21;79.59;74938.81;4906751;29;20221;-90
2024/01/29 01:22:44;;;;;;;23.43;11.57;;;;;;;-143.21;79.59;74922.94;4907335;29;20573;-89
2024/01/29 01:25:11;;;;;;;16.90;9.93;;;;;;;-143.21;79.31;74915.00;4923739;29;20235;-92
2024/01/29 01:27:39;;;;;;;17.73;10.13;;;;;;;-143.21;79.11;74913.03;4914710;29;20195;-89
2024/01/29 01:30:08;;;;;;;17.43;9.73;;;;;;;-143.21;78.90;74901.13;4935395;29;20297;-89
2024/01/29 01:32:35;;;;;;;17.93;8.83;;;;;;;-143.21;78.12;74877.31;4895539;29;20208;-89
2024/01/29 01:35:02;;;;;;;15.67;8.97;;;;;;;-143.21;77.94;74883.25;4913495;29;20209;-88
2024/01/29 01:37:29;;;;;;;18.53;9.70;;;;;;;-143.21;77.97;74883.25;4908521;29;20681;-90
2024/01/29 01:39:56;;;;;;;15.60;9.33;;;;;;;-143.21;77.71;74881.28;4914986;29;20203;-90
2024/01/29 01:42:23;;;;;;;13.63;9.27;;;;;;;-143.21;77.53;74879.28;4922143;29;20202;-89
2024/01/29 01:44:51;;;;;;;13.33;8.67;;;;;;;-143.21;77.75;74885.25;4914823;29;20203;-89
2024/01/29 01:50:34;;;;;;;16.37;9.00;;;;;;;-143.21;77.53;74871.34;4872281;29;20235;-90
2024/01/29 01:53:01;;;;;;;13.60;8.63;;;;;;;-143.21;77.47;74859.44;4898755;29;20720;-89
2024/01/29 01:55:29;;;;;;;16.03;9.13;;;;;;;-143.21;77.14;74849.53;4889640;29;20554;-89
2024/01/29 01:57:57;;;;;;;15.07;9.27;;;;;;;-143.21;77.07;74839.59;4892001;29;20208;-88
2024/01/29 02:00:26;;;;;;;13.83;8.57;;;;;;;-143.21;76.53;74831.66;4881739;29;20314;-88
2024/01/29 02:02:53;;;;;;;13.40;8.67;;;;;;;-143.21;76.46;74833.66;4882189;29;20231;-87
2024/01/29 02:05:20;;;;;;;14.50;8.37;;;;;;;-143.21;76.40;74835.63;4882780;29;20212;-88
2024/01/29 02:07:46;;;;;;;13.40;8.67;;;;;;;-143.21;76.13;74833.66;4892760;29;20701;-88
2024/01/29 02:10:14;;;;;;;13.90;8.97;;;;;;;-143.21;75.97;74827.69;4883373;29;20690;-89
2024/01/29 02:12:41;;;;;;;15.47;9.17;;;;;;;-143.21;76.00;74829.66;4897208;29;20200;-88
2024/01/29 02:15:09;;;;;;;12.87;8.93;;;;;;;-143.21;76.04;74817.75;4886659;29;20226;-89
2024/01/29 02:17:37;;;;;;;14.27;8.73;;;;;;;-143.21;75.64;74829.66;4888567;29;20224;-87
2024/01/29 02:20:06;;;;;;;19.13;10.20;;;;;;;-143.21;75.35;74825.69;4891496;29;20199;-88
2024/01/29 02:22:33;;;;;;;23.90;11.90;;;;;;;-143.21;75.49;74823.72;4896621;29;20208;-88
2024/01/29 02:25:01;;;;;;;20.87;10.67;;;;;;;-143.21;75.22;74835.63;4893776;29;20214;-88
2024/01/29 02:27:28;;;;;;;23.33;10.67;;;;;;;-143.21;75.69;74841.59;4895316;29;20277;-89
2024/01/29 02:29:55;;;;;;;19.83;10.53;;;;;;;-143.21;75.85;74839.59;4918119;29;20226;-89
2024/01/29 02:32:21;;;;;;;21.83;10.47;;;;;;;-143.21;75.81;74853.50;4915533;29;20210;-88
2024/01/29 02:34:48;;;;;;;15.53;9.77;;;;;;;-143.21;75.81;74859.44;4923237;29;20238;-88
2024/01/29 02:37:15;;;;;;;16.43;9.23;;;;;;;-143.21;76.06;74851.50;4918208;29;20271;-89
2024/01/29 02:39:42;;;;;;;16.27;9.70;;;;;;;-143.21;76.08;74857.47;4930514;29;20221;-87
2024/01/29 02:42:10;;;;;;;17.77;10.33;;;;;;;-143.21;76.33;74847.53;4915074;29;20638;-88
2024/01/29 02:44:37;;;;;;;16.80;10.27;;;;;;;-143.21;76.17;74851.50;4914502;29;20263;-88
2024/01/29 02:47:04;;;;;;;15.93;9.53;;;;;;;-143.21;76.20;74847.53;4919286;29;20206;-87
2024/01/29 02:49:31;;;;;;;16.17;9.43;;;;;;;-143.21;76.19;74843.56;4904009;29;20262;-87
2024/01/29 02:51:58;;;;;;;25.07;11.33;;;;;;;-143.21;75.72;74843.56;4909159;29;20235;-88
2024/01/29 02:54:25;;;;;;;22.70;12.30;;;;;;;-143.21;75.75;74843.56;4908323;29;20210;-88
2024/01/29 02:56:52;;;;;;;26.17;12.73;;;;;;;-143.21;75.46;74841.59;4908360;29;20202;-88
2024/01/29 02:59:20;;;;;;;24.77;12.43;;;;;;;-143.21;75.61;74865.41;4922313;29;20203;-87
2024/01/29 03:01:47;;;;;;;23.97;12.27;;;;;;;-143.21;76.19;74871.34;4922334;29;20670;-87
2024/01/29 03:04:13;;;;;;;22.87;11.73;;;;;;;-143.21;75.96;74867.38;4912825;29;20740;-88
2024/01/29 03:06:40;;;;;;;18.77;11.07;;;;;;;-143.21;76.79;74897.16;4920968;29;20596;-88
2024/01/29 03:09:07;;;;;;;19.63;10.50;;;;;;;-143.21;77.28;74905.09;4915439;29;20211;-88
2024/01/29 03:11:33;;;;;;;17.33;10.40;;;;;;;-143.21;76.96;74887.22;4912296;29;20287;-87
2024/01/29 03:14:00;;;;;;;19.77;10.90;;;;;;;-143.21;77.23;74907.06;4909299;29;20203;-88
2024/01/29 03:16:29;;;;;;;18.77;10.77;;;;;;;-143.21;77.30;74895.16;4917283;29;20650;-88
2024/01/29 03:18:55;;;;;;;19.80;10.97;;;;;;;-143.21;77.05;74881.28;4916746;29;20210;-88
2024/01/29 03:21:22;;;;;;;19.53;10.80;;;;;;;-143.21;76.97;74875.31;4919454;29;20290;-88
2024/01/29 03:23:49;;;;;;;18.33;9.93;;;;;;;-143.21;76.73;74871.34;4920055;29;20628;-87
2024/01/29 03:26:16;;;;;;;21.20;10.50;;;;;;;-143.21;76.25;74871.34;4913647;29;20285;-88
2024/01/29 03:28:43;;;;;;;17.47;9.83;;;;;;;-143.21;76.54;74883.25;4919069;29;20259;-87
2024/01/29 03:31:09;;;;;;;17.90;10.90;;;;;;;-143.21;76.67;74889.22;4917022;29;20306;-88
2024/01/29 03:33:38;;;;;;;20.47;11.80;;;;;;;-143.21;77.12;74905.09;4905410;29;20686;-88
2024/01/29 03:36:04;;;;;;;19.63;10.90;;;;;;;-143.21;77.51;74909.06;4913225;29;20610;-88
2024/01/29 03:38:30;;;;;;;22.97;12.37;;;;;;;-143.21;77.14;74893.19;4910279;29;20223;-88
2024/01/29 03:40:57;;;;;;;26.23;12.33;;;;;;;-143.21;77.27;74899.13;4908422;29;20286;-88
2024/01/29 03:43:24;;;;;;;22.80;12.00;;;;;;;-143.21;76.90;74875.31;4903535;29;20871;-89
2024/01/29 03:45:52;;;;;;;19.53;10.93;;;;;;;-143.21;76.75;74871.34;4917127;29;20666;-88
2024/01/29 03:48:18;;;;;;;19.97;10.73;;;;;;;-143.21;76.97;74865.41;4901718;29;20210;-89
2024/01/29 03:50:47;;;;;;;18.80;10.03;;;;;;;-143.21;76.88;74861.44;4902428;29;20298;-88
2024/01/29 03:53:13;;;;;;;21.03;10.07;;;;;;;-143.21;76.71;74845.56;4905386;29;20221;-87
2024/01/29 03:55:41;;;;;;;16.57;9.50;;;;;;;-143.21;76.22;74833.66;4922230;29;20352;-89
2024/01/29 03:58:08;;;;;;;16.90;9.53;;;;;;;-143.21;75.83;74827.69;4916401;29;20273;-89
2024/01/29 04:00:35;;;;;;;16.23;9.70;;;;;;;-143.21;75.20;74815.78;4911792;29;20204;-88
2024/01/29 04:03:04;;;;;;;16.00;9.23;;;;;;;-143.21;75.33;74819.75;4911452;29;20227;-88
2024/01/29 04:05:31;;;;;;;20.53;10.40;;;;;;;-143.21;75.41;74817.75;4913708;29;20645;-89
2024/01/29 04:08:00;;;;;;;21.40;11.33;;;;;;;-143.21;75.12;74819.75;4911414;29;20764;-88
2024/01/29 04:10:27;;;;;;;18.00;9.97;;;;;;;-143.21;75.05;74817.75;4916788;29;20238;-86
2024/01/29 04:12:53;;;;;;;18.80;10.30;;;;;;;-143.21;75.25;74821.75;4920203;29;20211;-87
2024/01/29 04:15:20;;;;;;;20.33;10.17;;;;;;;-143.21;75.17;74825.69;4908274;29;20564;-88
2024/01/29 04:17:47;;;;;;;18.47;10.23;;;;;;;-143.21;75.06;74831.66;4915114;29;20195;-87
2024/01/29 04:20:14;;;;;;;18.40;10.47;;;;;;;-143.21;75.13;74831.66;4900924;29;20790;-87
2024/01/29 04:22:41;;;;;;;15.70;10.00;;;;;;;-143.21;75.00;74831.66;4916290;29;20226;-87
2024/01/29 04:25:09;;;;;;;17.97;10.33;;;;;;;-143.21;75.04;74833.66;4922761;29;20191;-86
2024/01/29 04:27:36;;;;;;;17.33;10.90;;;;;;;-143.21;75.27;74837.63;4926780;29;20641;-88
2024/01/29 04:30:03;;;;;;;19.43;10.33;;;;;;;-143.21;75.16;74843.56;4928071;29;20250;-87
2024/01/29 04:32:30;;;;;;;15.90;9.90;;;;;;;-143.21;75.76;74837.63;4932949;29;20245;-88
2024/01/29 04:34:57;;;;;;;18.50;10.90;;;;;;;-143.21;75.87;74841.59;4909581;29;20653;-88
2024/01/29 04:37:24;;;;;;;19.20;10.27;;;;;;;-143.21;75.96;74839.59;4914439;29;20259;-88
2024/01/29 04:39:52;;;;;;;19.20;10.67;;;;;;;-143.21;75.86;74839.59;4917900;29;20754;-89
2024/01/29 04:42:20;;;;;;;17.83;10.50;;;;;;;-143.21;76.50;74839.59;4907006;29;20219;-90
2024/01/29 04:44:47;;;;;;;16.80;10.57;;;;;;;-143.21;76.03;74829.66;4905561;29;20204;-89
2024/01/29 04:47:13;;;;;;;17.57;10.40;;;;;;;-143.21;75.53;74831.66;4905903;29;20208;-88
2024/01/29 04:49:40;;;;;;;20.60;10.80;;;;;;;-143.21;75.56;74829.66;4905293;29;20647;-87
2024/01/29 04:52:07;;;;;;;19.40;9.90;;;;;;;-143.21;75.45;74835.63;4901816;29;20233;-87
2024/01/29 04:54:34;;;;;;;22.80;10.83;;;;;;;-143.21;75.35;74831.66;4908834;29;20204;-87
2024/01/29 04:57:00;;;;;;;20.90;12.30;;;;;;;-143.21;74.93;74827.69;4915232;29;20671;-88
2024/01/29 04:59:29;;;;;;;23.73;10.97;;;;;;;-143.21;75.36;74827.69;4908432;29;20233;-88
2024/01/29 05:01:56;;;;;;;24.40;11.77;;;;;;;-143.21;75.20;74823.72;4911314;29;20719;-87
2024/01/29 05:04:22;;;;;;;29.10;14.80;;;;;;;-143.21;74.68;74809.81;4919603;29;20207;-88
2024/01/29 05:06:52;;;;;;;30.33;15.57;;;;;;;-143.21;73.99;74805.84;4916443;29;20229;-88
2024/01/29 05:09:19;;;;;;;45.33;17.57;;;;;;;-143.21;74.15;74813.78;4914936;29;20640;-88
2024/01/29 05:11:46;;;;;;;39.47;17.50;;;;;;;-143.21;74.01;74821.75;4925379;29;20715;-87
2024/01/29 05:14:12;;;;;;;37.77;18.97;;;;;;;-143.21;74.41;74829.66;4915512;29;20206;-88
2024/01/29 05:16:51;;;;;;;31.17;17.50;;;;;;;-143.21;74.41;74831.66;4919407;29;20208;-88
2024/01/29 05:19:17;;;;;;;21.90;13.40;;;;;;;-143.21;74.15;74821.75;4915377;29;20224;-87
2024/01/29 05:21:44;;;;;;;21.00;11.67;;;;;;;-143.21;74.07;74827.69;4917087;29;20601;-87
2024/01/29 05:24:11;;;;;;;22.93;12.97;;;;;;;-143.21;74.30;74829.66;4911668;29;20212;-88
2024/01/29 05:26:41;;;;;;;19.63;11.07;;;;;;;-143.21;74.27;74823.72;4923957;29;20268;-88
2024/01/29 05:29:08;;;;;;;19.30;11.47;;;;;;;-143.21;74.06;74819.75;4922855;29;20264;-88
2024/01/29 05:31:35;;;;;;;17.30;10.83;;;;;;;-143.21;74.85;74841.59;4904350;29;20675;-89
2024/01/29 05:34:03;;;;;;;21.70;11.53;;;;;;;-143.21;75.21;74839.59;4919742;29;20219;-86
2024/01/29 05:36:30;;;;;;;21.93;10.83;;;;;;;-143.21;75.35;74843.56;4937418;29;20220;-90
2024/01/29 05:41:37;;;;;;;20.83;11.47;;;;;;;-143.21;74.51;74851.50;4921774;29;20259;-86
2024/01/29 05:44:04;;;;;;;20.67;11.53;;;;;;;-143.21;75.20;74855.47;4932215;29;20852;-88
2024/01/29 05:46:31;;;;;;;20.80;10.80;;;;;;;-143.21;75.01;74857.47;4925460;23;20258;-89
2024/01/29 05:48:58;;;;;;;18.47;11.20;;;;;;;-143.21;75.21;74847.53;4897076;29;20216;-87
2024/01/29 05:54:20;;;;;;;18.23;10.77;;;;;;;-143.21;75.53;74853.50;4897769;29;20294;-90
2024/01/29 05:56:47;;;;;;;17.57;11.03;;;;;;;-143.21;75.09;74847.53;4915161;29;20267;-89
2024/01/29 05:59:14;;;;;;;19.10;10.50;;;;;;;-143.21;74.60;74841.59;4919029;29;20206;-88
2024/01/29 06:01:41;;;;;;;17.33;9.90;;;;;;;-143.21;74.47;74841.59;4925887;29;20648;-88
2024/01/29 06:04:08;;;;;;;18.47;9.97;;;;;;;-143.21;74.46;74841.59;4913543;29;20200;-89
2024/01/29 06:06:37;;;;;;;16.60;10.00;;;;;;;-143.21;74.18;74837.63;4915220;29;20200;-88
2024/01/29 06:09:05;;;;;;;18.63;10.07;;;;;;;-143.21;74.27;74831.66;4907081;29;20211;-89
2024/01/29 06:11:32;;;;;;;18.40;11.40;;;;;;;-143.21;74.17;74837.63;4907679;29;20239;-88
2024/01/29 06:13:59;;;;;;;21.20;11.17;;;;;;;-143.21;73.98;74855.47;4921318;23;20723;-90
2024/01/29 06:16:26;;;;;;;19.83;10.47;;;;;;;-143.21;74.10;74857.47;4914593;29;20716;-90
2024/01/29 06:19:09;;;;;;;17.93;10.90;;;;;;;-143.21;74.27;74857.47;4911809;29;20217;-88
2024/01/29 06:21:44;;;;;;;19.20;11.17;;;;;;;-143.21;74.09;74861.44;4902467;29;20252;-91
2024/01/29 06:24:11;;;;;;;24.73;11.47;;;;;;;-143.21;74.44;74865.41;4906882;29;20210;-89
2024/01/29 06:26:41;;;;;;;25.30;11.20;;;;;;;-143.21;74.09;74867.38;4926724;29;20212;-89
2024/01/29 06:29:08;;;;;;;20.27;11.17;;;;;;;-143.21;74.43;74873.34;4920363;29;20207;-90
2024/01/29 06:31:44;;;;;;;20.27;10.77;;;;;;;-143.21;74.88;74871.34;4906365;29;20237;-89
2024/01/29 06:34:17;;;;;;;18.57;11.60;;;;;;;-143.21;74.72;74869.38;4925036;29;20630;-91
2024/01/29 06:39:37;;;;;;;21.40;11.20;;;;;;;-143.21;74.15;74855.47;4924312;23;20239;-94
2024/01/29 06:42:04;;;;;;;16.37;10.00;;;;;;;-143.21;74.17;74863.41;4903555;29;20576;-89
2024/01/29 06:44:36;;;;;;;17.87;11.03;;;;;;;-143.21;73.99;74867.38;4892539;29;20219;-90
2024/01/29 06:47:03;;;;;;;16.73;9.97;;;;;;;-143.21;73.72;74867.38;4899746;29;20216;-88
2024/01/29 06:49:32;;;;;;;20.17;10.77;;;;;;;-143.21;73.72;74869.38;4915649;23;20732;-89
2024/01/29 06:52:09;;;;;;;18.20;10.50;;;;;;;-143.21;74.26;74867.38;4910028;29;20322;-91
2024/01/29 06:54:49;;;;;;;22.87;10.83;;;;;;;-143.21;73.91;74861.44;4926076;23;20701;-90
2024/01/29 06:57:16;;;;;;;19.40;10.37;;;;;;;-143.21;73.94;74863.41;4893179;29;20225;-90
2024/01/29 06:59:43;;;;;;;13.73;9.93;;;;;;;-143.21;73.86;74859.44;4914728;29;20216;-90
2024/01/29 07:02:19;;;;;;;;;;;;;;;;;;;;;
2024/01/29 07:04:48;;;;;;;16.13;10.30;;;;;;;-143.21;72.61;74849.53;4908703;29;20309;-89
2024/01/29 07:07:16;;;;;;;18.10;10.13;;;;;;;-143.21;72.83;74849.53;4917878;29;20633;-89
2024/01/29 07:09:44;;;;;;;19.90;11.43;;;;;;;-143.21;72.74;74845.56;4907234;29;21237;-90
2024/01/29 07:12:14;;;;;;;18.73;10.10;;;;;;;-143.21;72.61;74847.53;4909056;29;20265;-89
2024/01/29 07:14:41;;;;;;;16.20;9.77;;;;;;;-143.21;72.43;74847.53;4929508;23;20319;-89
2024/01/29 07:17:11;;;;;;;16.47;10.13;;;;;;;-143.21;72.52;74845.56;4916753;23;20289;-89
2024/01/29 07:19:38;;;;;;;16.70;9.67;;;;;;;-143.21;72.07;74855.47;4909215;29;20667;-90
2024/01/29 07:22:14;;;;;;;16.07;9.17;;;;;;;-143.21;71.83;74861.44;4913195;29;20200;-91
2024/01/29 07:24:41;;;;;;;16.87;9.47;;;;;;;-143.21;71.30;74855.47;4923365;23;20237;-89
2024/01/29 07:27:09;;;;;;;15.40;9.53;;;;;;;-143.21;71.08;74857.47;4914980;29;20199;-89
2024/01/29 07:29:36;;;;;;;15.63;8.60;;;;;;;-143.21;69.77;74849.53;4937123;29;20641;-90
2024/01/29 07:32:03;;;;;;;17.47;10.37;;;;;;;-143.21;70.00;74849.53;4914129;29;20220;-90
2024/01/29 07:34:30;;;;;;;15.33;9.43;;;;;;;-143.21;70.77;74845.56;4915658;29;20322;-89
2024/01/29 07:36:57;;;;;;;19.43;11.43;;;;;;;-143.21;69.82;74827.69;4914148;29;20203;-89
2024/01/29 07:39:24;;;;;;;20.77;10.77;;;;;;;-143.21;69.33;74823.72;4917727;29;20204;-88
2024/01/29 07:41:51;;;;;;;19.10;11.30;;;;;;;-143.21;69.53;74825.69;4913511;29;20213;-89
2024/01/29 07:44:19;;;;;;;16.33;10.57;;;;;;;-143.21;69.53;74827.69;4910238;29;20626;-88
2024/01/29 07:46:52;;;;;;;18.37;10.17;;;;;;;-143.21;69.67;74819.75;4910173;29;20292;-88
2024/01/29 07:52:00;;;;;;;19.00;10.43;;;;;;;-143.21;69.95;74813.78;4916044;29;20622;-89
2024/01/29 07:54:27;;;;;;;18.67;11.07;;;;;;;-143.21;70.22;74811.81;4912472;29;20212;-88
2024/01/29 07:56:56;;;;;;;22.17;13.37;;;;;;;-143.21;69.81;74815.78;4921793;23;20595;-89
2024/01/29 07:59:31;;;;;;;18.83;12.40;;;;;;;-143.21;69.95;74809.81;4897673;29;20236;-88
2024/01/29 08:01:58;;;;;;;20.40;12.70;;;;;;;-143.21;69.91;74809.81;4899447;29;20386;-89
2024/01/29 08:04:27;;;;;;;18.97;12.13;;;;;;;-143.21;69.97;74795.94;4901655;23;20236;-91
2024/01/29 08:06:54;;;;;;;22.53;13.60;;;;;;;-143.21;69.78;74803.88;4906697;29;20238;-88
2024/01/29 08:09:30;;;;;;;;;;;;;;;;;;;;;
2024/01/29 08:11:58;;;;;;;30.27;17.50;;;;;;;-143.21;69.24;74795.94;4918962;29;20247;-91
2024/01/29 08:14:25;;;;;;;29.13;17.00;;;;;;;-143.21;69.79;74789.97;4926686;29;20200;-89
2024/01/29 08:16:54;;;;;;;37.67;19.40;;;;;;;-143.21;69.53;74784.03;4919113;29;20602;-88
2024/01/29 08:19:25;;;;;;;31.80;17.60;;;;;;;-143.21;69.73;74786.00;4911716;29;20243;-89
2024/01/29 08:21:58;;;;;;;29.80;16.73;;;;;;;-143.21;69.33;74780.06;4908378;29;20683;-89
2024/01/29 08:24:26;;;;;;;29.30;16.33;;;;;;;-143.21;69.52;74776.09;4917811;29;20204;-89
2024/01/29 08:26:53;;;;;;;31.37;16.27;;;;;;;-143.21;70.23;74780.06;4918787;29;20212;-90
2024/01/29 08:29:21;;;;;;;27.73;15.63;;;;;;;-143.21;69.67;74770.13;4915860;29;20212;-91
2024/01/29 08:34:30;;;;;;;25.10;14.40;;;;;;;-143.21;69.08;74750.28;4891757;29;20703;-87
2024/01/29 08:37:01;;;;;;;26.60;14.23;;;;;;;-143.21;68.75;74738.38;4882579;29;20243;-90
2024/01/29 08:39:28;;;;;;;22.97;12.67;;;;;;;-143.21;68.24;74742.34;4899984;29;20204;-89
2024/01/29 08:41:55;;;;;;;22.60;12.27;;;;;;;-143.21;67.53;74736.41;4893588;29;20216;-90
2024/01/29 08:44:21;;;;;;;22.83;12.07;;;;;;;-143.21;67.55;74734.41;4895309;29;20237;-89
2024/01/29 08:46:48;;;;;;;23.63;12.47;;;;;;;-143.21;67.05;74726.47;4894164;29;20210;-91
2024/01/29 08:49:18;;;;;;;25.63;13.37;;;;;;;-143.21;66.91;74716.56;4888316;29;20217;-90
2024/01/29 08:51:52;;;;;;;22.80;13.97;;;;;;;-143.21;66.74;74714.56;4894141;29;20233;-91
2024/01/29 08:54:19;;;;;;;25.03;11.07;;;;;;;-143.21;65.64;74714.56;4929065;23;20339;-92
2024/01/29 08:56:46;;;;;;;22.70;11.57;;;;;;;-143.21;65.51;74728.47;4928242;29;20259;-93
2024/01/29 08:59:19;;;;;;;23.83;12.77;;;;;;;-143.21;65.96;74728.47;5021129;23;20540;-91
2024/01/29 09:04:41;;;;;;;21.73;12.13;;;;;;;-143.21;66.10;74722.50;4876447;29;20321;-90
2024/01/29 09:07:10;;;;;;;20.10;12.13;;;;;;;-143.21;65.68;74734.41;4879133;29;20310;-89
2024/01/29 09:09:37;;;;;;;24.23;12.37;;;;;;;-143.21;65.90;74736.41;4880185;29;20220;-89
2024/01/29 09:12:04;;;;;;;24.80;13.60;;;;;;;-143.21;65.68;74732.44;4903407;23;20233;-87
2024/01/29 09:14:31;;;;;;;24.93;13.30;;;;;;;-143.21;66.28;74744.34;4902442;29;20211;-87
2024/01/29 09:16:58;;;;;;;16.17;10.57;;;;;;;-143.21;65.94;74754.25;4898377;29;20216;-88
2024/01/29 09:19:25;;;;;;;22.63;12.17;;;;;;;-143.21;65.73;74742.34;4896769;29;20260;-88
2024/01/29 09:21:52;;;;;;;23.83;12.67;;;;;;;-143.21;65.59;74738.38;4901226;29;20213;-88
2024/01/29 09:24:20;;;;;;;24.57;13.63;;;;;;;-143.21;65.56;74736.41;4893902;29;20661;-89
2024/01/29 09:26:47;;;;;;;21.47;11.70;;;;;;;-143.21;65.90;74748.31;4901261;29;20210;-88
2024/01/29 09:29:13;;;;;;;29.43;12.60;;;;;;;-143.21;66.08;74754.25;4893632;29;20586;-88
2024/01/29 09:31:42;;;;;;;25.77;13.30;;;;;;;-143.21;66.52;74736.41;4888632;29;20217;-87
2024/01/29 09:34:09;;;;;;;20.43;11.13;;;;;;;-143.21;65.65;74724.50;4896262;29;20289;-89
2024/01/29 09:36:36;;;;;;;18.93;11.17;;;;;;;-143.21;65.25;74720.53;4907232;29;20217;-90
2024/01/29 09:39:03;;;;;;;19.43;10.57;;;;;;;-143.21;65.11;74730.44;4886861;29;20202;-90
2024/01/29 09:41:34;;;;;;;20.47;10.20;;;;;;;-143.21;64.29;74726.47;4897348;29;20637;-89
2024/01/29 09:44:06;;;;;;;17.67;10.17;;;;;;;-143.21;64.19;74736.41;4904889;29;20206;-90
2024/01/29 09:46:37;;;;;;;18.30;9.20;;;;;;;-143.21;64.15;74742.34;4897237;29;20822;-90
2024/01/29 09:49:10;;;;;;;16.50;9.67;;;;;;;-143.21;64.08;74746.31;4892478;29;20202;-89
2024/01/29 09:51:37;;;;;;;10.97;6.63;;;;;;;-143.21;61.62;74764.19;4918161;29;20228;-90
2024/01/29 09:54:05;;;;;;;15.13;5.40;;;;;;;-143.21;59.61;74748.31;4905356;29;20787;-88
2024/01/29 09:56:32;;;;;;;11.33;5.67;;;;;;;-143.21;59.11;74748.31;4896637;29;20724;-87
2024/01/29 09:59:00;;;;;;;7.97;5.10;;;;;;;-143.21;58.21;74754.25;4896439;29;20210;-88
2024/01/29 10:01:28;;;;;;;11.60;5.07;;;;;;;-143.21;58.28;74742.34;4894330;29;20294;-89
2024/01/29 10:03:55;;;;;;;10.73;5.83;;;;;;;-143.21;57.97;74748.31;4901684;29;20234;-89
2024/01/29 10:06:21;;;;;;;10.90;6.07;;;;;;;-143.21;57.59;74740.38;4898738;29;20211;-89
2024/01/29 10:08:49;;;;;;;9.57;6.07;;;;;;;-143.21;57.94;74746.31;4908063;29;20212;-89
2024/01/29 10:11:18;;;;;;;10.43;6.53;;;;;;;-143.21;58.17;74756.25;4921033;29;20256;-89
2024/01/29 10:13:48;;;;;;;11.93;6.47;;;;;;;-143.21;57.97;74742.34;4904309;29;20234;-91
2024/01/29 10:16:19;;;;;;;12.73;6.50;;;;;;;-143.21;59.00;74742.34;4901026;29;20241;-89
2024/01/29 10:18:56;;;;;;;13.07;6.97;;;;;;;-143.21;58.86;74801.88;4911837;29;20198;-90
2024/01/29 10:21:48;;;;;;;12.73;6.80;;;;;;;-143.21;60.87;74869.38;4918290;23;20246;-92
2024/01/29 10:24:17;;;;;;;7.60;5.30;;;;;;;-143.21;62.00;74932.88;4922711;29;20227;-90
2024/01/29 10:29:24;;;;;;;9.23;4.30;;;;;;;-143.21;61.33;74938.81;4930555;29;20610;-89
2024/01/29 10:31:58;;;;;;;6.53;3.70;;;;;;;-143.21;59.78;74889.22;4916504;29;20597;-88
2024/01/29 10:34:25;;;;;;;6.43;4.20;;;;;;;-143.21;59.35;74899.13;4920831;29;20203;-90
2024/01/29 10:36:56;;;;;;;8.60;4.17;;;;;;;-143.21;60.02;74928.91;4920488;29;20282;-90
2024/01/29 10:39:24;;;;;;;6.77;4.10;;;;;;;-143.21;60.05;74942.78;4914365;29;20665;-90
2024/01/29 10:41:53;;;;;;;12.00;3.97;;;;;;;-143.21;60.10;74918.97;4923208;29;20214;-90
2024/01/29 10:44:22;;;;;;;9.30;4.47;;;;;;;-143.21;59.52;74877.31;4913078;29;20221;-90
2024/01/29 10:47:03;;;;;;;8.20;4.30;;;;;;;-143.21;58.57;74871.34;4916637;29;20203;-89
2024/01/29 10:49:32;;;;;;;7.17;4.60;;;;;;;-143.21;59.27;74905.09;4912509;29;20202;-92
2024/01/29 10:52:06;;;;;;;8.17;4.87;;;;;;;-143.21;59.73;74930.88;4915004;29;20732;-91
2024/01/29 10:54:33;;;;;;;8.83;4.33;;;;;;;-143.21;60.17;74913.03;4924975;23;20345;-91
2024/01/29 10:57:02;;;;;;;12.83;4.70;;;;;;;-143.21;59.27;74877.31;4918388;29;20210;-89
2024/01/29 10:59:30;;;;;;;5.17;3.77;;;;;;;-143.21;57.95;74859.44;4921257;29;21008;-89
2024/01/29 11:01:58;;;;;;;8.40;3.87;;;;;;;-143.21;58.24;74899.13;4906257;29;20645;-92
2024/01/29 11:04:25;;;;;;;12.90;5.87;;;;;;;-143.21;59.62;74915.00;4920227;29;20224;-91
2024/01/29 11:06:58;;;;;;;16.20;6.53;;;;;;;-143.21;59.37;74899.13;4924100;29;20219;-89
2024/01/29 11:09:27;;;;;;;26.57;10.23;;;;;;;-143.21;58.73;74875.31;4922843;29;20197;-88
2024/01/29 11:11:56;;;;;;;26.03;12.07;;;;;;;-143.21;57.98;74857.47;4917999;29;20229;-89
2024/01/29 11:14:24;;;;;;;19.83;8.20;;;;;;;-143.21;59.15;74891.19;4918431;29;20756;-90
2024/01/29 11:16:51;;;;;;;26.30;11.70;;;;;;;-143.21;59.70;74917.00;4927944;29;20221;-90
2024/01/29 11:19:22;;;;;;;8.83;5.13;;;;;;;-143.21;60.20;74905.09;4907156;29;20206;-93
2024/01/29 11:21:50;;;;;;;8.10;4.40;;;;;;;-143.21;59.17;74871.34;4935468;29;20229;-91
2024/01/29 11:24:20;;;;;;;8.30;4.37;;;;;;;-143.21;58.24;74839.59;4929065;29;20203;-89
2024/01/29 11:26:48;;;;;;;6.63;4.10;;;;;;;-143.21;58.10;74873.34;4938548;29;20199;-88
2024/01/29 11:29:19;;;;;;;7.67;4.13;;;;;;;-143.21;59.41;74917.00;4934966;29;20324;-90
2024/01/29 11:31:48;;;;;;;6.07;4.17;;;;;;;-143.21;59.97;74920.97;4921332;29;20191;-90
2024/01/29 11:34:15;;;;;;;7.33;4.10;;;;;;;-143.21;59.47;74885.25;4920507;29;20227;-89